sensor_id;sensor_type;location;lat;lon;timestamp;P1;durP1;ratioP1;P2;durP2;ratioP2
49450;SDS011;35336;48.400;10.886;2023-09-18T00:00:07;6.53;;;5.40;;
49450;SDS011;35336;48.400;10.886;2023-09-18T00:00:23;6.07;;;5.47;;
49450;SDS011;35336;48.400;10.886;2023-09-18T00:00:38;6.23;;;5.63;;
49450;SDS011;35336;48.400;10.886;2023-09-18T00:00:53;6.70;;;5.60;;
49450;SDS011;35336;48.400;10.886;2023-09-18T00:01:09;6.93;;;5.57;;
49450;SDS011;35336;48.400;10.886;2023-09-18T00:01:24;7.37;;;5.77;;
49450;SDS011;35336;48.400;10.886;2023-09-18T00:01:42;7.47;;;5.70;;
49450;SDS011;35336;48.400;10.886;2023-09-18T00:01:57;6.82;;;5.47;;
49450;SDS011;35336;48.400;10.886;2023-09-18T00:02:12;6.17;;;5.40;;
49450;SDS011;35336;48.400;10.886;2023-09-18T00:02:30;6.33;;;5.33;;
49450;SDS011;35336;48.400;10.886;2023-09-18T00:02:45;7.20;;;5.40;;
49450;SDS011;35336;48.400;10.886;2023-09-18T00:03:00;6.63;;;5.27;;
49450;SDS011;35336;48.400;10.886;2023-09-18T00:03:18;6.50;;;5.28;;
49450;SDS011;35336;48.400;10.886;2023-09-18T00:03:37;6.30;;;5.50;;
49450;SDS011;35336;48.400;10.886;2023-09-18T00:03:52;6.35;;;5.60;;
49450;SDS011;35336;48.400;10.886;2023-09-18T00:04:10;6.57;;;5.40;;
49450;SDS011;35336;48.400;10.886;2023-09-18T00:04:25;7.83;;;5.37;;
49450;SDS011;35336;48.400;10.886;2023-09-18T00:04:40;8.87;;;5.87;;
49450;SDS011;35336;48.400;10.886;2023-09-18T00:04:55;8.18;;;5.78;;
49450;SDS011;35336;48.400;10.886;2023-09-18T00:05:13;6.43;;;5.20;;
49450;SDS011;35336;48.400;10.886;2023-09-18T00:05:33;7.68;;;5.53;;
49450;SDS011;35336;48.400;10.886;2023-09-18T00:05:49;7.75;;;5.85;;
49450;SDS011;35336;48.400;10.886;2023-09-18T00:06:07;7.47;;;5.78;;
49450;SDS011;35336;48.400;10.886;2023-09-18T00:06:22;6.73;;;5.53;;
49450;SDS011;35336;48.400;10.886;2023-09-18T00:06:37;5.70;;;5.20;;
49450;SDS011;35336;48.400;10.886;2023-09-18T00:06:53;8.27;;;5.40;;
49450;SDS011;35336;48.400;10.886;2023-09-18T00:07:08;9.02;;;5.70;;
49450;SDS011;35336;48.400;10.886;2023-09-18T00:07:26;6.90;;;5.60;;
49450;SDS011;35336;48.400;10.886;2023-09-18T00:07:41;6.75;;;5.40;;
49450;SDS011;35336;48.400;10.886;2023-09-18T00:07:57;7.88;;;5.45;;
49450;SDS011;35336;48.400;10.886;2023-09-18T00:08:18;7.95;;;5.20;;
49450;SDS011;35336;48.400;10.886;2023-09-18T00:08:36;5.57;;;4.93;;
49450;SDS011;35336;48.400;10.886;2023-09-18T00:08:56;5.63;;;5.00;;
49450;SDS011;35336;48.400;10.886;2023-09-18T00:09:11;5.93;;;5.30;;
49450;SDS011;35336;48.400;10.886;2023-09-18T00:09:29;6.70;;;5.40;;
49450;SDS011;35336;48.400;10.886;2023-09-18T00:09:44;6.17;;;5.20;;
49450;SDS011;35336;48.400;10.886;2023-09-18T00:10:02;7.88;;;5.35;;
49450;SDS011;35336;48.400;10.886;2023-09-18T00:10:17;7.70;;;5.60;;
49450;SDS011;35336;48.400;10.886;2023-09-18T00:10:32;7.13;;;5.50;;
49450;SDS011;35336;48.400;10.886;2023-09-18T00:10:52;6.97;;;5.40;;
49450;SDS011;35336;48.400;10.886;2023-09-18T00:11:09;6.13;;;5.07;;
49450;SDS011;35336;48.400;10.886;2023-09-18T00:11:24;6.50;;;5.23;;
49450;SDS011;35336;48.400;10.886;2023-09-18T00:11:42;6.13;;;5.53;;
49450;SDS011;35336;48.400;10.886;2023-09-18T00:11:59;6.22;;;5.63;;
49450;SDS011;35336;48.400;10.886;2023-09-18T00:12:14;6.67;;;5.70;;
49450;SDS011;35336;48.400;10.886;2023-09-18T00:12:30;7.13;;;5.57;;
49450;SDS011;35336;48.400;10.886;2023-09-18T00:12:45;6.73;;;5.57;;
49450;SDS011;35336;48.400;10.886;2023-09-18T00:13:00;7.40;;;5.20;;
49450;SDS011;35336;48.400;10.886;2023-09-18T00:13:16;7.13;;;4.97;;
49450;SDS011;35336;48.400;10.886;2023-09-18T00:13:33;5.70;;;5.07;;
49450;SDS011;35336;48.400;10.886;2023-09-18T00:13:49;5.43;;;4.87;;
49450;SDS011;35336;48.400;10.886;2023-09-18T00:14:04;6.57;;;4.97;;
49450;SDS011;35336;48.400;10.886;2023-09-18T00:14:22;6.97;;;5.25;;
49450;SDS011;35336;48.400;10.886;2023-09-18T00:14:40;5.50;;;4.80;;
49450;SDS011;35336;48.400;10.886;2023-09-18T00:14:55;7.00;;;5.00;;
49450;SDS011;35336;48.400;10.886;2023-09-18T00:15:11;6.83;;;5.03;;
49450;SDS011;35336;48.400;10.886;2023-09-18T00:15:26;5.73;;;4.90;;
49450;SDS011;35336;48.400;10.886;2023-09-18T00:15:44;6.25;;;5.10;;
49450;SDS011;35336;48.400;10.886;2023-09-18T00:16:00;6.35;;;5.30;;
49450;SDS011;35336;48.400;10.886;2023-09-18T00:16:17;5.65;;;4.90;;
49450;SDS011;35336;48.400;10.886;2023-09-18T00:16:33;6.37;;;5.00;;
49450;SDS011;35336;48.400;10.886;2023-09-18T00:16:55;5.63;;;5.00;;
49450;SDS011;35336;48.400;10.886;2023-09-18T00:17:13;5.50;;;5.00;;
49450;SDS011;35336;48.400;10.886;2023-09-18T00:17:28;5.78;;;5.18;;
49450;SDS011;35336;48.400;10.886;2023-09-18T00:17:46;6.05;;;5.38;;
49450;SDS011;35336;48.400;10.886;2023-09-18T00:18:01;5.80;;;5.22;;
49450;SDS011;35336;48.400;10.886;2023-09-18T00:18:17;6.23;;;5.30;;
49450;SDS011;35336;48.400;10.886;2023-09-18T00:18:32;6.32;;;5.07;;
49450;SDS011;35336;48.400;10.886;2023-09-18T00:18:47;5.90;;;4.90;;
49450;SDS011;35336;48.400;10.886;2023-09-18T00:19:05;6.00;;;5.03;;
49450;SDS011;35336;48.400;10.886;2023-09-18T00:19:20;6.37;;;5.03;;
49450;SDS011;35336;48.400;10.886;2023-09-18T00:19:41;7.13;;;5.00;;
49450;SDS011;35336;48.400;10.886;2023-09-18T00:19:56;7.50;;;4.90;;
49450;SDS011;35336;48.400;10.886;2023-09-18T00:20:12;6.97;;;4.70;;
49450;SDS011;35336;48.400;10.886;2023-09-18T00:20:27;5.37;;;4.67;;
49450;SDS011;35336;48.400;10.886;2023-09-18T00:20:43;6.13;;;4.80;;
49450;SDS011;35336;48.400;10.886;2023-09-18T00:20:59;6.53;;;4.88;;
49450;SDS011;35336;48.400;10.886;2023-09-18T00:21:14;6.07;;;4.97;;
49450;SDS011;35336;48.400;10.886;2023-09-18T00:21:34;5.57;;;4.97;;
49450;SDS011;35336;48.400;10.886;2023-09-18T00:21:51;5.82;;;4.93;;
49450;SDS011;35336;48.400;10.886;2023-09-18T00:22:07;6.15;;;4.85;;
49450;SDS011;35336;48.400;10.886;2023-09-18T00:22:25;6.37;;;4.77;;
49450;SDS011;35336;48.400;10.886;2023-09-18T00:22:40;6.38;;;4.60;;
49450;SDS011;35336;48.400;10.886;2023-09-18T00:22:58;6.97;;;4.70;;
49450;SDS011;35336;48.400;10.886;2023-09-18T00:23:13;6.10;;;4.90;;
49450;SDS011;35336;48.400;10.886;2023-09-18T00:23:31;5.67;;;4.93;;
49450;SDS011;35336;48.400;10.886;2023-09-18T00:23:46;5.53;;;4.75;;
49450;SDS011;35336;48.400;10.886;2023-09-18T00:24:02;5.40;;;4.77;;
49450;SDS011;35336;48.400;10.886;2023-09-18T00:24:17;5.50;;;4.88;;
49450;SDS011;35336;48.400;10.886;2023-09-18T00:24:35;5.27;;;4.77;;
49450;SDS011;35336;48.400;10.886;2023-09-18T00:24:51;6.72;;;4.75;;
49450;SDS011;35336;48.400;10.886;2023-09-18T00:25:06;6.57;;;4.60;;
49450;SDS011;35336;48.400;10.886;2023-09-18T00:25:22;5.07;;;4.57;;
49450;SDS011;35336;48.400;10.886;2023-09-18T00:25:37;5.07;;;4.57;;
49450;SDS011;35336;48.400;10.886;2023-09-18T00:25:55;6.38;;;4.82;;
49450;SDS011;35336;48.400;10.886;2023-09-18T00:26:15;5.47;;;4.78;;
49450;SDS011;35336;48.400;10.886;2023-09-18T00:26:31;10.50;;;5.22;;
49450;SDS011;35336;48.400;10.886;2023-09-18T00:26:47;10.57;;;5.20;;
49450;SDS011;35336;48.400;10.886;2023-09-18T00:27:04;6.15;;;4.88;;
49450;SDS011;35336;48.400;10.886;2023-09-18T00:27:22;7.07;;;5.05;;
49450;SDS011;35336;48.400;10.886;2023-09-18T00:27:40;6.53;;;5.10;;
49450;SDS011;35336;48.400;10.886;2023-09-18T00:27:55;6.00;;;5.00;;
49450;SDS011;35336;48.400;10.886;2023-09-18T00:28:10;5.50;;;4.90;;
49450;SDS011;35336;48.400;10.886;2023-09-18T00:28:26;5.32;;;4.75;;
49450;SDS011;35336;48.400;10.886;2023-09-18T00:28:43;5.03;;;4.43;;
49450;SDS011;35336;48.400;10.886;2023-09-18T00:28:59;5.57;;;4.70;;
49450;SDS011;35336;48.400;10.886;2023-09-18T00:29:16;6.45;;;4.88;;
49450;SDS011;35336;48.400;10.886;2023-09-18T00:29:31;6.38;;;5.00;;
49450;SDS011;35336;48.400;10.886;2023-09-18T00:29:47;5.33;;;4.83;;
49450;SDS011;35336;48.400;10.886;2023-09-18T00:30:05;5.47;;;4.80;;
49450;SDS011;35336;48.400;10.886;2023-09-18T00:30:24;6.35;;;5.15;;
49450;SDS011;35336;48.400;10.886;2023-09-18T00:30:42;6.90;;;5.30;;
49450;SDS011;35336;48.400;10.886;2023-09-18T00:31:01;6.05;;;4.80;;
49450;SDS011;35336;48.400;10.886;2023-09-18T00:31:18;6.10;;;4.90;;
49450;SDS011;35336;48.400;10.886;2023-09-18T00:31:34;6.40;;;5.00;;
49450;SDS011;35336;48.400;10.886;2023-09-18T00:31:49;6.00;;;4.70;;
49450;SDS011;35336;48.400;10.886;2023-09-18T00:32:04;5.23;;;4.73;;
49450;SDS011;35336;48.400;10.886;2023-09-18T00:32:23;5.30;;;4.80;;
49450;SDS011;35336;48.400;10.886;2023-09-18T00:32:38;5.93;;;4.90;;
49450;SDS011;35336;48.400;10.886;2023-09-18T00:32:55;6.33;;;4.97;;
49450;SDS011;35336;48.400;10.886;2023-09-18T00:33:13;6.05;;;5.15;;
49450;SDS011;35336;48.400;10.886;2023-09-18T00:33:31;5.67;;;5.00;;
49450;SDS011;35336;48.400;10.886;2023-09-18T00:33:49;7.93;;;5.18;;
49450;SDS011;35336;48.400;10.886;2023-09-18T00:34:04;6.63;;;4.90;;
49450;SDS011;35336;48.400;10.886;2023-09-18T00:34:20;5.80;;;4.80;;
49450;SDS011;35336;48.400;10.886;2023-09-18T00:34:40;8.93;;;5.28;;
49450;SDS011;35336;48.400;10.886;2023-09-18T00:34:55;8.52;;;5.40;;
49450;SDS011;35336;48.400;10.886;2023-09-18T00:35:13;7.38;;;5.40;;
49450;SDS011;35336;48.400;10.886;2023-09-18T00:35:28;6.15;;;4.90;;
49450;SDS011;35336;48.400;10.886;2023-09-18T00:35:49;5.30;;;4.80;;
49450;SDS011;35336;48.400;10.886;2023-09-18T00:36:05;5.13;;;4.63;;
49450;SDS011;35336;48.400;10.886;2023-09-18T00:36:21;5.13;;;4.63;;
49450;SDS011;35336;48.400;10.886;2023-09-18T00:36:38;5.53;;;5.03;;
49450;SDS011;35336;48.400;10.886;2023-09-18T00:36:56;6.50;;;5.00;;
49450;SDS011;35336;48.400;10.886;2023-09-18T00:37:14;7.45;;;5.10;;
49450;SDS011;35336;48.400;10.886;2023-09-18T00:37:31;7.47;;;5.53;;
49450;SDS011;35336;48.400;10.886;2023-09-18T00:37:47;7.00;;;5.03;;
49450;SDS011;35336;48.400;10.886;2023-09-18T00:38:02;6.93;;;4.90;;
49450;SDS011;35336;48.400;10.886;2023-09-18T00:38:18;6.38;;;5.40;;
49450;SDS011;35336;48.400;10.886;2023-09-18T00:38:39;6.57;;;5.50;;
49450;SDS011;35336;48.400;10.886;2023-09-18T00:39:01;7.13;;;5.40;;
49450;SDS011;35336;48.400;10.886;2023-09-18T00:39:16;7.85;;;5.30;;
49450;SDS011;35336;48.400;10.886;2023-09-18T00:39:34;7.33;;;5.40;;
49450;SDS011;35336;48.400;10.886;2023-09-18T00:39:51;5.85;;;5.20;;
49450;SDS011;35336;48.400;10.886;2023-09-18T00:40:07;6.47;;;5.20;;
49450;SDS011;35336;48.400;10.886;2023-09-18T00:40:22;7.07;;;5.22;;
49450;SDS011;35336;48.400;10.886;2023-09-18T00:40:38;6.63;;;5.30;;
49450;SDS011;35336;48.400;10.886;2023-09-18T00:40:53;5.60;;;5.03;;
49450;SDS011;35336;48.400;10.886;2023-09-18T00:41:11;5.60;;;5.07;;
49450;SDS011;35336;48.400;10.886;2023-09-18T00:41:26;5.82;;;5.20;;
49450;SDS011;35336;48.400;10.886;2023-09-18T00:41:41;6.10;;;5.20;;
49450;SDS011;35336;48.400;10.886;2023-09-18T00:41:57;5.73;;;5.07;;
49450;SDS011;35336;48.400;10.886;2023-09-18T00:42:12;6.23;;;4.63;;
49450;SDS011;35336;48.400;10.886;2023-09-18T00:42:29;5.57;;;4.47;;
49450;SDS011;35336;48.400;10.886;2023-09-18T00:42:44;5.47;;;4.78;;
49450;SDS011;35336;48.400;10.886;2023-09-18T00:43:00;6.23;;;4.77;;
49450;SDS011;35336;48.400;10.886;2023-09-18T00:43:18;5.70;;;4.72;;
49450;SDS011;35336;48.400;10.886;2023-09-18T00:43:33;6.23;;;4.70;;
49450;SDS011;35336;48.400;10.886;2023-09-18T00:43:51;7.25;;;5.18;;
49450;SDS011;35336;48.400;10.886;2023-09-18T00:44:11;6.10;;;4.85;;
49450;SDS011;35336;48.400;10.886;2023-09-18T00:44:29;6.15;;;4.95;;
49450;SDS011;35336;48.400;10.886;2023-09-18T00:44:46;6.43;;;4.97;;
49450;SDS011;35336;48.400;10.886;2023-09-18T00:45:02;6.32;;;4.95;;
49450;SDS011;35336;48.400;10.886;2023-09-18T00:45:20;5.63;;;4.85;;
49450;SDS011;35336;48.400;10.886;2023-09-18T00:45:42;5.97;;;4.85;;
49450;SDS011;35336;48.400;10.886;2023-09-18T00:46:00;6.05;;;4.65;;
49450;SDS011;35336;48.400;10.886;2023-09-18T00:46:18;5.57;;;4.65;;
49450;SDS011;35336;48.400;10.886;2023-09-18T00:46:33;5.53;;;4.65;;
49450;SDS011;35336;48.400;10.886;2023-09-18T00:46:50;6.18;;;4.78;;
49450;SDS011;35336;48.400;10.886;2023-09-18T00:47:07;6.07;;;4.82;;
49450;SDS011;35336;48.400;10.886;2023-09-18T00:47:23;5.85;;;4.85;;
49450;SDS011;35336;48.400;10.886;2023-09-18T00:47:41;5.72;;;5.10;;
49450;SDS011;35336;48.400;10.886;2023-09-18T00:47:59;5.95;;;5.35;;
49450;SDS011;35336;48.400;10.886;2023-09-18T00:48:15;6.50;;;5.13;;
49450;SDS011;35336;48.400;10.886;2023-09-18T00:48:34;6.40;;;4.95;;
49450;SDS011;35336;48.400;10.886;2023-09-18T00:48:49;6.77;;;5.00;;
49450;SDS011;35336;48.400;10.886;2023-09-18T00:49:08;8.30;;;5.20;;
49450;SDS011;35336;48.400;10.886;2023-09-18T00:49:25;9.93;;;5.32;;
49450;SDS011;35336;48.400;10.886;2023-09-18T00:49:41;8.88;;;5.15;;
49450;SDS011;35336;48.400;10.886;2023-09-18T00:50:02;8.48;;;5.32;;
49450;SDS011;35336;48.400;10.886;2023-09-18T00:50:22;8.15;;;5.50;;
49450;SDS011;35336;48.400;10.886;2023-09-18T00:50:45;7.97;;;5.35;;
49450;SDS011;35336;48.400;10.886;2023-09-18T00:51:03;8.77;;;5.32;;
49450;SDS011;35336;48.400;10.886;2023-09-18T00:51:19;6.00;;;5.15;;
49450;SDS011;35336;48.400;10.886;2023-09-18T00:51:39;7.68;;;5.25;;
49450;SDS011;35336;48.400;10.886;2023-09-18T00:51:57;8.23;;;5.50;;
49450;SDS011;35336;48.400;10.886;2023-09-18T00:52:15;6.25;;;5.07;;
49450;SDS011;35336;48.400;10.886;2023-09-18T00:52:32;8.20;;;5.18;;
49450;SDS011;35336;48.400;10.886;2023-09-18T00:52:47;8.45;;;5.72;;
49450;SDS011;35336;48.400;10.886;2023-09-18T00:53:06;8.80;;;5.85;;
49450;SDS011;35336;48.400;10.886;2023-09-18T00:53:23;6.32;;;4.95;;
49450;SDS011;35336;48.400;10.886;2023-09-18T00:53:43;5.72;;;5.10;;
49450;SDS011;35336;48.400;10.886;2023-09-18T00:54:00;6.45;;;5.25;;
49450;SDS011;35336;48.400;10.886;2023-09-18T00:54:16;6.90;;;5.20;;
49450;SDS011;35336;48.400;10.886;2023-09-18T00:54:34;6.80;;;5.38;;
49450;SDS011;35336;48.400;10.886;2023-09-18T00:54:50;7.93;;;5.43;;
49450;SDS011;35336;48.400;10.886;2023-09-18T00:55:07;6.30;;;4.93;;
49450;SDS011;35336;48.400;10.886;2023-09-18T00:55:27;5.30;;;4.75;;
49450;SDS011;35336;48.400;10.886;2023-09-18T00:55:45;5.50;;;5.00;;
49450;SDS011;35336;48.400;10.886;2023-09-18T00:56:04;5.75;;;5.07;;
49450;SDS011;35336;48.400;10.886;2023-09-18T00:56:19;5.70;;;5.00;;
49450;SDS011;35336;48.400;10.886;2023-09-18T00:56:35;5.67;;;5.10;;
49450;SDS011;35336;48.400;10.886;2023-09-18T00:56:52;5.80;;;5.20;;
49450;SDS011;35336;48.400;10.886;2023-09-18T00:57:11;5.70;;;5.15;;
49450;SDS011;35336;48.400;10.886;2023-09-18T00:57:26;5.68;;;4.93;;
49450;SDS011;35336;48.400;10.886;2023-09-18T00:57:42;6.43;;;5.17;;
49450;SDS011;35336;48.400;10.886;2023-09-18T00:57:57;6.55;;;5.10;;
49450;SDS011;35336;48.400;10.886;2023-09-18T00:58:13;6.60;;;5.00;;
49450;SDS011;35336;48.400;10.886;2023-09-18T00:58:28;7.78;;;5.22;;
49450;SDS011;35336;48.400;10.886;2023-09-18T00:58:46;8.60;;;5.63;;
49450;SDS011;35336;48.400;10.886;2023-09-18T00:59:06;7.88;;;5.30;;
49450;SDS011;35336;48.400;10.886;2023-09-18T00:59:22;8.70;;;5.18;;
49450;SDS011;35336;48.400;10.886;2023-09-18T00:59:38;8.57;;;5.60;;
49450;SDS011;35336;48.400;10.886;2023-09-18T00:59:56;6.90;;;5.50;;
49450;SDS011;35336;48.400;10.886;2023-09-18T01:00:12;5.55;;;4.90;;
49450;SDS011;35336;48.400;10.886;2023-09-18T01:00:30;5.90;;;5.03;;
49450;SDS011;35336;48.400;10.886;2023-09-18T01:00:45;6.35;;;5.05;;
49450;SDS011;35336;48.400;10.886;2023-09-18T01:01:00;5.57;;;4.67;;
49450;SDS011;35336;48.400;10.886;2023-09-18T01:01:16;5.90;;;4.70;;
49450;SDS011;35336;48.400;10.886;2023-09-18T01:01:33;5.53;;;4.93;;
49450;SDS011;35336;48.400;10.886;2023-09-18T01:01:56;5.57;;;4.97;;
49450;SDS011;35336;48.400;10.886;2023-09-18T01:02:11;5.68;;;5.05;;
49450;SDS011;35336;48.400;10.886;2023-09-18T01:02:29;5.53;;;4.93;;
49450;SDS011;35336;48.400;10.886;2023-09-18T01:02:49;5.70;;;5.10;;
49450;SDS011;35336;48.400;10.886;2023-09-18T01:03:06;7.03;;;5.35;;
49450;SDS011;35336;48.400;10.886;2023-09-18T01:03:24;7.17;;;5.30;;
49450;SDS011;35336;48.400;10.886;2023-09-18T01:03:39;6.05;;;5.22;;
49450;SDS011;35336;48.400;10.886;2023-09-18T01:03:55;6.10;;;5.40;;
49450;SDS011;35336;48.400;10.886;2023-09-18T01:04:12;6.00;;;5.40;;
49450;SDS011;35336;48.400;10.886;2023-09-18T01:04:28;5.97;;;5.38;;
49450;SDS011;35336;48.400;10.886;2023-09-18T01:04:44;5.38;;;4.88;;
49450;SDS011;35336;48.400;10.886;2023-09-18T01:05:00;5.40;;;4.90;;
49450;SDS011;35336;48.400;10.886;2023-09-18T01:05:15;8.40;;;5.13;;
49450;SDS011;35336;48.400;10.886;2023-09-18T01:05:34;9.80;;;5.53;;
49450;SDS011;35336;48.400;10.886;2023-09-18T01:05:49;7.05;;;5.60;;
49450;SDS011;35336;48.400;10.886;2023-09-18T01:06:06;6.22;;;5.28;;
49450;SDS011;35336;48.400;10.886;2023-09-18T01:06:24;7.17;;;5.33;;
49450;SDS011;35336;48.400;10.886;2023-09-18T01:06:40;6.32;;;5.00;;
49450;SDS011;35336;48.400;10.886;2023-09-18T01:06:55;5.43;;;4.85;;
49450;SDS011;35336;48.400;10.886;2023-09-18T01:07:11;6.50;;;5.00;;
49450;SDS011;35336;48.400;10.886;2023-09-18T01:07:26;5.93;;;5.00;;
49450;SDS011;35336;48.400;10.886;2023-09-18T01:07:41;6.07;;;5.35;;
49450;SDS011;35336;48.400;10.886;2023-09-18T01:07:59;6.55;;;5.65;;
49450;SDS011;35336;48.400;10.886;2023-09-18T01:08:16;6.93;;;5.60;;
49450;SDS011;35336;48.400;10.886;2023-09-18T01:08:32;6.70;;;5.45;;
49450;SDS011;35336;48.400;10.886;2023-09-18T01:08:49;5.77;;;5.17;;
49450;SDS011;35336;48.400;10.886;2023-09-18T01:09:04;5.97;;;5.20;;
49450;SDS011;35336;48.400;10.886;2023-09-18T01:09:22;6.80;;;5.10;;
49450;SDS011;35336;48.400;10.886;2023-09-18T01:09:38;7.32;;;5.15;;
49450;SDS011;35336;48.400;10.886;2023-09-18T01:09:55;7.47;;;5.10;;
49450;SDS011;35336;48.400;10.886;2023-09-18T01:10:11;6.95;;;5.10;;
49450;SDS011;35336;48.400;10.886;2023-09-18T01:10:30;6.40;;;5.57;;
49450;SDS011;35336;48.400;10.886;2023-09-18T01:11:31;6.95;;;5.30;;
49450;SDS011;35336;48.400;10.886;2023-09-18T01:11:54;6.68;;;5.20;;
49450;SDS011;35336;48.400;10.886;2023-09-18T01:12:21;9.20;;;5.45;;
49450;SDS011;35336;48.400;10.886;2023-09-18T01:13:27;5.88;;;5.28;;
49450;SDS011;35336;48.400;10.886;2023-09-18T01:13:52;5.45;;;4.95;;
49450;SDS011;35336;48.400;10.886;2023-09-18T01:15:21;6.60;;;5.10;;
49450;SDS011;35336;48.400;10.886;2023-09-18T01:15:42;5.25;;;4.75;;
49450;SDS011;35336;48.400;10.886;2023-09-18T01:16:08;5.45;;;4.95;;
49450;SDS011;35336;48.400;10.886;2023-09-18T01:16:36;8.70;;;5.28;;
49450;SDS011;35336;48.400;10.886;2023-09-18T01:16:57;7.07;;;4.95;;
49450;SDS011;35336;48.400;10.886;2023-09-18T01:17:14;5.03;;;4.53;;
49450;SDS011;35336;48.400;10.886;2023-09-18T01:17:30;5.25;;;4.60;;
49450;SDS011;35336;48.400;10.886;2023-09-18T01:17:49;6.00;;;4.82;;
49450;SDS011;35336;48.400;10.886;2023-09-18T01:18:05;6.20;;;5.30;;
49450;SDS011;35336;48.400;10.886;2023-09-18T01:18:23;6.13;;;5.15;;
49450;SDS011;35336;48.400;10.886;2023-09-18T01:18:49;5.85;;;4.75;;
49450;SDS011;35336;48.400;10.886;2023-09-18T01:19:05;7.40;;;5.30;;
49450;SDS011;35336;48.400;10.886;2023-09-18T01:19:36;7.45;;;5.00;;
49450;SDS011;35336;48.400;10.886;2023-09-18T01:19:55;6.95;;;5.25;;
49450;SDS011;35336;48.400;10.886;2023-09-18T01:20:13;5.70;;;5.10;;
49450;SDS011;35336;48.400;10.886;2023-09-18T01:20:30;6.60;;;5.10;;
49450;SDS011;35336;48.400;10.886;2023-09-18T01:20:48;6.82;;;5.28;;
49450;SDS011;35336;48.400;10.886;2023-09-18T01:21:05;6.05;;;5.43;;
49450;SDS011;35336;48.400;10.886;2023-09-18T01:21:23;7.37;;;5.33;;
49450;SDS011;35336;48.400;10.886;2023-09-18T01:21:38;7.13;;;5.25;;
49450;SDS011;35336;48.400;10.886;2023-09-18T01:21:58;5.88;;;5.13;;
49450;SDS011;35336;48.400;10.886;2023-09-18T01:22:14;6.72;;;5.28;;
49450;SDS011;35336;48.400;10.886;2023-09-18T01:22:31;7.03;;;4.93;;
49450;SDS011;35336;48.400;10.886;2023-09-18T01:22:49;5.78;;;4.60;;
49450;SDS011;35336;48.400;10.886;2023-09-18T01:23:04;6.10;;;4.88;;
49450;SDS011;35336;48.400;10.886;2023-09-18T01:23:19;6.50;;;5.00;;
49450;SDS011;35336;48.400;10.886;2023-09-18T01:23:37;6.30;;;5.27;;
49450;SDS011;35336;48.400;10.886;2023-09-18T01:23:55;6.25;;;5.25;;
49450;SDS011;35336;48.400;10.886;2023-09-18T01:24:10;5.78;;;5.18;;
49450;SDS011;35336;48.400;10.886;2023-09-18T01:24:25;5.57;;;4.63;;
49450;SDS011;35336;48.400;10.886;2023-09-18T01:24:40;7.13;;;4.50;;
49450;SDS011;35336;48.400;10.886;2023-09-18T01:24:59;7.25;;;4.88;;
49450;SDS011;35336;48.400;10.886;2023-09-18T01:25:14;6.00;;;5.23;;
49450;SDS011;35336;48.400;10.886;2023-09-18T01:25:31;5.47;;;4.97;;
49450;SDS011;35336;48.400;10.886;2023-09-18T01:25:49;5.30;;;4.80;;
49450;SDS011;35336;48.400;10.886;2023-09-18T01:26:05;5.70;;;5.03;;
49450;SDS011;35336;48.400;10.886;2023-09-18T01:26:23;6.38;;;4.90;;
49450;SDS011;35336;48.400;10.886;2023-09-18T01:26:38;6.43;;;4.83;;
49450;SDS011;35336;48.400;10.886;2023-09-18T01:26:53;6.13;;;4.97;;
49450;SDS011;35336;48.400;10.886;2023-09-18T01:27:14;7.22;;;5.07;;
49450;SDS011;35336;48.400;10.886;2023-09-18T01:27:35;6.40;;;4.82;;
49450;SDS011;35336;48.400;10.886;2023-09-18T01:27:53;6.22;;;4.97;;
49450;SDS011;35336;48.400;10.886;2023-09-18T01:28:08;5.40;;;4.90;;
49450;SDS011;35336;48.400;10.886;2023-09-18T01:28:25;6.38;;;5.47;;
49450;SDS011;35336;48.400;10.886;2023-09-18T01:28:43;6.45;;;5.07;;
49450;SDS011;35336;48.400;10.886;2023-09-18T01:28:58;5.60;;;4.87;;
49450;SDS011;35336;48.400;10.886;2023-09-18T01:29:13;5.53;;;4.93;;
49450;SDS011;35336;48.400;10.886;2023-09-18T01:29:29;6.07;;;4.90;;
49450;SDS011;35336;48.400;10.886;2023-09-18T01:29:44;5.63;;;4.72;;
49450;SDS011;35336;48.400;10.886;2023-09-18T01:30:00;5.30;;;4.80;;
49450;SDS011;35336;48.400;10.886;2023-09-18T01:30:21;6.20;;;5.28;;
49450;SDS011;35336;48.400;10.886;2023-09-18T01:30:38;6.57;;;4.85;;
49450;SDS011;35336;48.400;10.886;2023-09-18T01:30:53;5.60;;;4.53;;
49450;SDS011;35336;48.400;10.886;2023-09-18T01:31:09;5.20;;;4.53;;
49450;SDS011;35336;48.400;10.886;2023-09-18T01:31:27;5.97;;;4.83;;
49450;SDS011;35336;48.400;10.886;2023-09-18T01:31:42;6.05;;;5.22;;
49450;SDS011;35336;48.400;10.886;2023-09-18T01:31:58;6.10;;;5.30;;
49450;SDS011;35336;48.400;10.886;2023-09-18T01:32:15;6.00;;;5.20;;
49450;SDS011;35336;48.400;10.886;2023-09-18T01:32:33;6.93;;;5.07;;
49450;SDS011;35336;48.400;10.886;2023-09-18T01:32:51;7.25;;;5.10;;
49450;SDS011;35336;48.400;10.886;2023-09-18T01:33:09;6.32;;;5.10;;
49450;SDS011;35336;48.400;10.886;2023-09-18T01:33:25;6.05;;;5.43;;
49450;SDS011;35336;48.400;10.886;2023-09-18T01:33:43;7.75;;;5.55;;
49450;SDS011;35336;48.400;10.886;2023-09-18T01:34:02;7.80;;;5.20;;
49450;SDS011;35336;48.400;10.886;2023-09-18T01:34:21;6.78;;;5.10;;
49450;SDS011;35336;48.400;10.886;2023-09-18T01:34:47;6.88;;;5.35;;
49450;SDS011;35336;48.400;10.886;2023-09-18T01:35:06;7.22;;;5.00;;
49450;SDS011;35336;48.400;10.886;2023-09-18T01:35:23;6.22;;;4.90;;
49450;SDS011;35336;48.400;10.886;2023-09-18T01:35:41;6.18;;;5.10;;
49450;SDS011;35336;48.400;10.886;2023-09-18T01:35:57;6.03;;;5.22;;
49450;SDS011;35336;48.400;10.886;2023-09-18T01:36:16;6.47;;;5.30;;
49450;SDS011;35336;48.400;10.886;2023-09-18T01:36:35;7.25;;;5.18;;
49450;SDS011;35336;48.400;10.886;2023-09-18T01:36:53;6.45;;;5.30;;
49450;SDS011;35336;48.400;10.886;2023-09-18T01:37:12;6.60;;;5.22;;
49450;SDS011;35336;48.400;10.886;2023-09-18T01:37:35;5.97;;;5.22;;
49450;SDS011;35336;48.400;10.886;2023-09-18T01:37:56;6.25;;;5.30;;
49450;SDS011;35336;48.400;10.886;2023-09-18T01:38:16;6.82;;;5.55;;
49450;SDS011;35336;48.400;10.886;2023-09-18T01:38:34;7.05;;;5.45;;
49450;SDS011;35336;48.400;10.886;2023-09-18T01:38:51;7.53;;;5.40;;
49450;SDS011;35336;48.400;10.886;2023-09-18T01:39:07;6.50;;;5.22;;
49450;SDS011;35336;48.400;10.886;2023-09-18T01:39:26;6.18;;;5.45;;
49450;SDS011;35336;48.400;10.886;2023-09-18T01:39:46;5.80;;;5.20;;
49450;SDS011;35336;48.400;10.886;2023-09-18T01:40:09;5.78;;;5.18;;
49450;SDS011;35336;48.400;10.886;2023-09-18T01:40:24;6.80;;;5.05;;
49450;SDS011;35336;48.400;10.886;2023-09-18T01:40:43;6.13;;;4.90;;
49450;SDS011;35336;48.400;10.886;2023-09-18T01:40:58;5.57;;;4.93;;
49450;SDS011;35336;48.400;10.886;2023-09-18T01:41:15;6.85;;;4.90;;
49450;SDS011;35336;48.400;10.886;2023-09-18T01:41:30;7.47;;;4.75;;
49450;SDS011;35336;48.400;10.886;2023-09-18T01:41:47;7.13;;;4.75;;
49450;SDS011;35336;48.400;10.886;2023-09-18T01:42:03;7.00;;;4.82;;
49450;SDS011;35336;48.400;10.886;2023-09-18T01:42:20;5.63;;;4.50;;
49450;SDS011;35336;48.400;10.886;2023-09-18T01:42:35;5.50;;;4.60;;
49450;SDS011;35336;48.400;10.886;2023-09-18T01:42:55;6.72;;;5.07;;
49450;SDS011;35336;48.400;10.886;2023-09-18T01:43:10;6.10;;;5.32;;
49450;SDS011;35336;48.400;10.886;2023-09-18T01:43:28;5.80;;;5.20;;
49450;SDS011;35336;48.400;10.886;2023-09-18T01:43:46;6.70;;;5.15;;
49450;SDS011;35336;48.400;10.886;2023-09-18T01:44:04;6.28;;;5.00;;
49450;SDS011;35336;48.400;10.886;2023-09-18T01:44:19;5.87;;;5.13;;
49450;SDS011;35336;48.400;10.886;2023-09-18T01:44:35;6.00;;;5.40;;